| time (UTC) | temp C | wind direction | speed KPH | gust KPH | rain 1hr cm | rain 24hr cm | rain mn cm | humidity % | barometer mb |
| 20260906023025 | 15 | 0.0 | 0.0 | 0.00 | 0.13 | 0.00 | 99 | 1024.1 | |
| 20260906022021 | 15 | 135 | 0.0 | 1.6 | 0.00 | 0.13 | 0.00 | 99 | 1024.0 |
| 20260906021017 | 15 | 0.0 | 0.0 | 0.00 | 0.13 | 0.00 | 99 | 1024.0 | |
| 20260906020028 | 15 | 0.0 | 0.0 | 0.00 | 0.13 | 0.00 | 99 | 1023.9 | |
| 20260906015024 | 15 | 0.0 | 0.0 | 0.00 | 0.13 | 0.00 | 99 | 1023.9 | |
| 20260906014019 | 15 | 180 | 0.0 | 0.0 | 0.00 | 0.13 | 0.00 | 99 | 1023.8 |
| 20260906013015 | 15 | 180 | 0.0 | 3.2 | 0.00 | 0.13 | 0.00 | 99 | 1023.8 |
| 20260906012026 | 15 | 0.0 | 0.0 | 0.00 | 0.13 | 0.00 | 99 | 1023.6 | |
| 20260906011022 | 15 | 0.0 | 0.0 | 0.00 | 0.13 | 0.00 | 99 | 1023.5 | |
| 20260906010017 | 15 | 0.0 | 0.0 | 0.00 | 0.13 | 0.00 | 99 | 1023.7 | |
| 20260906005028 | 15 | 0.0 | 0.0 | 0.00 | 0.13 | 0.00 | 99 | 1023.7 | |
| 20260906004029 | 15 | 0.0 | 0.0 | 0.00 | 0.13 | 0.00 | 99 | 1023.6 | |
| 20260906003025 | 15 | 0.0 | 0.0 | 0.00 | 0.13 | 0.00 | 99 | 1023.5 | |
| 20260906002021 | 15 | 0.0 | 0.0 | 0.00 | 0.13 | 0.00 | 99 | 1023.5 | |
| 20260906001016 | 15 | 0.0 | 0.0 | 0.00 | 0.13 | 0.00 | 99 | 1023.4 | |
| 20260906000028 | 15 | 45 | 0.0 | 1.6 | 0.00 | 0.13 | 0.00 | 99 | 1023.4 |
| 20260905235023 | 16 | 315 | 0.0 | 3.2 | 0.00 | 0.13 | 0.00 | 99 | 1023.5 |
| 20260905234016 | 16 | 315 | 0.0 | 4.8 | 0.00 | 0.13 | 0.00 | 99 | 1023.3 |
| 20260905233027 | 16 | 0.0 | 0.0 | 0.00 | 0.13 | 0.00 | 99 | 1023.3 | |
| 20260905232022 | 15 | 0.0 | 0.0 | 0.00 | 0.13 | 0.00 | 99 | 1023.2 | |
| 20260905231018 | 15 | 0.0 | 0.0 | 0.00 | 0.13 | 0.00 | 99 | 1023.3 | |
| 20260905230029 | 15 | 135 | 0.0 | 1.6 | 0.00 | 0.13 | 0.00 | 99 | 1023.2 |
| 20260905225025 | 15 | 0.0 | 0.0 | 0.00 | 0.13 | 0.00 | 99 | 1023.2 | |
| 20260905224021 | 15 | 225 | 0.0 | 1.6 | 0.00 | 0.13 | 0.00 | 99 | 1023.3 |
| 20260905223017 | 15 | 0.0 | 0.0 | 0.00 | 0.13 | 0.00 | 99 | 1023.2 | |
| 20260905222028 | 15 | 0.0 | 0.0 | 0.00 | 0.13 | 0.00 | 99 | 1023.2 | |
| 20260905221022 | 15 | 0.0 | 0.0 | 0.00 | 0.13 | 0.00 | 99 | 1023.1 | |
| 20260905220018 | 15 | 135 | 0.0 | 1.6 | 0.00 | 0.13 | 0.00 | 99 | 1023.0 |
| 20260905215029 | 15 | 0.0 | 0.0 | 0.00 | 0.13 | 0.13 | 99 | 1023.0 | |
| 20260905214028 | 15 | 0.0 | 0.0 | 0.00 | 0.13 | 0.13 | 99 | 1022.9 | |
| 20260905213024 | 15 | 180 | 0.0 | 1.6 | 0.00 | 0.13 | 0.13 | 99 | 1022.9 |
| 20260905212020 | 15 | 0.0 | 0.0 | 0.00 | 0.13 | 0.13 | 99 | 1022.9 | |
| 20260905211015 | 16 | 135 | 0.0 | 1.6 | 0.00 | 0.13 | 0.13 | 99 | 1022.8 |
| 20260905210026 | 16 | 0.0 | 0.0 | 0.00 | 0.13 | 0.13 | 99 | 1022.7 | |
| 20260905205022 | 16 | 0.0 | 0.0 | 0.00 | 0.13 | 0.13 | 99 | 1022.8 | |
| 20260905204034 | 16 | 0.0 | 0.0 | 0.00 | 0.13 | 0.13 | 99 | 1022.6 | |
| 20260905203030 | 16 | 0.0 | 0.0 | 0.00 | 0.13 | 0.13 | 99 | 1022.5 | |
| 20260905202026 | 16 | 0.0 | 0.0 | 0.00 | 0.13 | 0.13 | 99 | 1022.4 | |
| 20260905201022 | 16 | 0.0 | 0.0 | 0.00 | 0.13 | 0.13 | 99 | 1022.5 | |
| 20260905200018 | 16 | 0.0 | 0.0 | 0.00 | 0.13 | 0.13 | 98 | 1022.3 | |
| 20260905195028 | 16 | 0.0 | 0.0 | 0.00 | 0.13 | 0.13 | 98 | 1022.2 | |
| 20260905194024 | 16 | 0.0 | 0.0 | 0.00 | 0.13 | 0.13 | 98 | 1022.1 | |
| 20260905193020 | 16 | 0.0 | 0.0 | 0.00 | 0.13 | 0.13 | 97 | 1021.9 | |
| 20260905192016 | 16 | 0.0 | 0.0 | 0.00 | 0.13 | 0.13 | 97 | 1021.7 | |
| 20260905191027 | 16 | 0.0 | 0.0 | 0.00 | 0.13 | 0.13 | 96 | 1021.7 | |
| 20260905190023 | 17 | 0.0 | 0.0 | 0.00 | 0.13 | 0.13 | 96 | 1021.7 | |
| 20260905185019 | 17 | 0.0 | 0.0 | 0.00 | 0.13 | 0.13 | 93 | 1021.4 | |
| 20260905184029 | 17 | 0.0 | 0.0 | 0.00 | 0.13 | 0.13 | 92 | 1021.3 | |
| 20260905183025 | 17 | 0.0 | 0.0 | 0.00 | 0.13 | 0.13 | 90 | 1021.3 | |
| 20260905182021 | 17 | 0.0 | 0.0 | 0.00 | 0.13 | 0.13 | 89 | 1021.1 | |
| 20260905181017 | 18 | 0.0 | 0.0 | 0.00 | 0.13 | 0.13 | 88 | 1021.1 | |
| 20260905180028 | 18 | 0.0 | 0.0 | 0.00 | 0.13 | 0.13 | 86 | 1020.9 | |
| 20260905175024 | 18 | 0.0 | 0.0 | 0.00 | 0.13 | 0.13 | 84 | 1020.6 | |
| 20260905174019 | 18 | 0.0 | 0.0 | 0.00 | 0.13 | 0.13 | 83 | 1020.5 | |
| 20260905173026 | 20 | 0.0 | 0.0 | 0.00 | 0.13 | 0.13 | 81 | 1020.4 | |
| 20260905172022 | 20 | 0.0 | 0.0 | 0.00 | 0.13 | 0.13 | 77 | 1020.3 | |
| 20260905171018 | 21 | 0.0 | 0.0 | 0.00 | 0.13 | 0.13 | 73 | 1020.2 | |
| 20260905170029 | 23 | 0.0 | 0.0 | 0.00 | 0.13 | 0.13 | 65 | 1020.1 | |
| 20260905165024 | 25 | 0.0 | 0.0 | 0.00 | 0.13 | 0.13 | 63 | 1019.9 | |
| 20260905164021 | 27 | 0.0 | 0.0 | 0.00 | 0.13 | 0.13 | 60 | 1019.9 | |
| 20260905163016 | 26 | 0.0 | 0.0 | 0.00 | 0.13 | 0.13 | 61 | 1019.8 | |
| 20260905162027 | 25 | 135 | 0.0 | 1.6 | 0.00 | 0.13 | 0.13 | 63 | 1020.0 |
| 20260905161023 | 25 | 135 | 0.0 | 1.6 | 0.00 | 0.13 | 0.13 | 64 | 1019.9 |
| 20260905160018 | 25 | 90 | 0.0 | 3.2 | 0.00 | 0.13 | 0.13 | 65 | 1019.8 |
| 20260905155029 | 24 | 135 | 0.0 | 3.2 | 0.00 | 0.13 | 0.13 | 68 | 1019.8 |
| 20260905154025 | 22 | 159 | 0.0 | 3.2 | 0.00 | 0.13 | 0.13 | 76 | 1019.8 |
| 20260905153021 | 21 | 146 | 1.6 | 4.8 | 0.00 | 0.13 | 0.13 | 78 | 1019.7 |
| 20260905152017 | 21 | 142 | 0.0 | 3.2 | 0.00 | 0.13 | 0.13 | 76 | 1019.8 |
| 20260905151028 | 21 | 135 | 0.0 | 1.6 | 0.00 | 0.13 | 0.13 | 74 | 1019.9 |
| 20260905150023 | 21 | 135 | 0.0 | 3.2 | 0.00 | 0.13 | 0.13 | 73 | 1020.2 |
| 20260905145019 | 22 | 90 | 0.0 | 1.6 | 0.00 | 0.13 | 0.13 | 70 | 1020.0 |
| 20260905144015 | 23 | 229 | 1.6 | 3.2 | 0.00 | 0.13 | 0.13 | 65 | 1019.9 |
| 20260905143026 | 22 | 145 | 1.6 | 3.2 | 0.00 | 0.13 | 0.13 | 71 | 1020.0 |
| 20260905142022 | 21 | 167 | 1.6 | 4.8 | 0.00 | 0.13 | 0.13 | 79 | 1020.1 |
| 20260905141018 | 20 | 270 | 0.0 | 1.6 | 0.00 | 0.13 | 0.13 | 81 | 1020.4 |
| 20260905140029 | 20 | 0.0 | 0.0 | 0.00 | 0.13 | 0.13 | 82 | 1020.2 | |
| 20260905135025 | 19 | 0.0 | 0.0 | 0.00 | 0.13 | 0.13 | 83 | 1020.2 | |
| 20260905134021 | 19 | 0.0 | 0.0 | 0.03 | 0.13 | 0.13 | 84 | 1020.2 | |
| 20260905133017 | 18 | 0.0 | 0.0 | 0.08 | 0.13 | 0.13 | 86 | 1020.3 | |
| 20260905132027 | 18 | 0.0 | 0.0 | 0.10 | 0.13 | 0.13 | 88 | 1020.2 | |
| 20260905131024 | 18 | 124 | 1.6 | 4.8 | 0.13 | 0.13 | 0.13 | 87 | 1020.2 |
| 20260905130019 | 18 | 196 | 1.6 | 8.0 | 0.13 | 0.13 | 0.13 | 85 | 1020.7 |
| 20260905125015 | 18 | 154 | 4.8 | 8.0 | 0.13 | 0.13 | 0.13 | 84 | 1020.4 |
| 20260905124026 | 19 | 180 | 0.0 | 4.8 | 0.10 | 0.10 | 0.10 | 79 | 1020.8 |
| 20260905123022 | 20 | 117 | 0.0 | 3.2 | 0.05 | 0.05 | 0.05 | 70 | 1021.1 |
| 20260905122020 | 21 | 346 | 8.0 | 16.1 | 0.03 | 0.03 | 0.03 | 61 | 1021.2 |
| 20260905121016 | 23 | 27 | 3.2 | 9.7 | 0.00 | 0.00 | 0.00 | 51 | 1020.9 |
| 20260905120027 | 23 | 35 | 1.6 | 4.8 | 0.00 | 0.00 | 0.00 | 50 | 1020.7 |
| 20260905115023 | 23 | 74 | 0.0 | 3.2 | 0.00 | 0.00 | 0.00 | 50 | 1020.4 |
| 20260905114018 | 24 | 135 | 0.0 | 3.2 | 0.00 | 0.00 | 0.00 | 49 | 1020.2 |
| 20260905113029 | 24 | 103 | 1.6 | 4.8 | 0.00 | 0.00 | 0.00 | 48 | 1020.2 |
| 20260905112025 | 24 | 90 | 1.6 | 4.8 | 0.00 | 0.00 | 0.00 | 49 | 1020.2 |
| 20260905111021 | 24 | 76 | 3.2 | 4.8 | 0.00 | 0.00 | 0.00 | 49 | 1020.1 |
| 20260905110017 | 24 | 81 | 1.6 | 4.8 | 0.00 | 0.00 | 0.00 | 50 | 1020.1 |
| 20260905105028 | 23 | 38 | 3.2 | 6.4 | 0.00 | 0.00 | 0.00 | 50 | 1020.0 |
| 20260905104024 | 23 | 120 | 3.2 | 8.0 | 0.00 | 0.00 | 0.00 | 49 | 1020.2 |
| 20260905103019 | 24 | 41 | 4.8 | 11.3 | 0.00 | 0.00 | 0.00 | 47 | 1020.0 |
| 20260905102015 | 25 | 71 | 3.2 | 6.4 | 0.00 | 0.00 | 0.00 | 47 | 1020.1 |
| 20260905101026 | 25 | 139 | 4.8 | 8.0 | 0.00 | 0.00 | 0.00 | 47 | 1020.0 |
| 20260905100022 | 25 | 124 | 4.8 | 9.7 | 0.00 | 0.00 | 0.00 | 46 | 1020.0 |
| 20260905095018 | 25 | 114 | 4.8 | 11.3 | 0.00 | 0.00 | 0.00 | 46 | 1019.9 |
| 20260905094028 | 24 | 119 | 6.4 | 12.9 | 0.00 | 0.00 | 0.00 | 46 | 1019.7 |
| 20260905093024 | 23 | 135 | 9.7 | 16.1 | 0.00 | 0.00 | 0.00 | 49 | 1019.8 |
| 20260905092021 | 23 | 120 | 6.4 | 11.3 | 0.00 | 0.00 | 0.00 | 50 | 1019.9 |
| 20260905091016 | 23 | 135 | 4.8 | 9.7 | 0.00 | 0.00 | 0.00 | 51 | 1019.8 |
| 20260905090027 | 23 | 138 | 8.0 | 12.9 | 0.00 | 0.00 | 0.00 | 52 | 1019.7 |
| 20260905085023 | 23 | 114 | 6.4 | 9.7 | 0.00 | 0.00 | 0.00 | 52 | 1019.5 |
| 20260905084018 | 23 | 124 | 4.8 | 9.7 | 0.00 | 0.00 | 0.00 | 54 | 1019.4 |
| 20260905083029 | 23 | 152 | 6.4 | 16.1 | 0.00 | 0.00 | 0.00 | 58 | 1019.1 |
| 20260905082025 | 23 | 120 | 4.8 | 9.7 | 0.00 | 0.00 | 0.00 | 59 | 1018.9 |
| 20260905081021 | 23 | 97 | 4.8 | 9.7 | 0.00 | 0.00 | 0.00 | 60 | 1018.7 |
| 20260905080017 | 24 | 122 | 6.4 | 16.1 | 0.00 | 0.00 | 0.00 | 60 | 1018.4 |
| 20260905075028 | 25 | 208 | 4.8 | 17.7 | 0.00 | 0.00 | 0.00 | 60 | 1018.1 |
| 20260905074023 | 25 | 73 | 4.8 | 9.7 | 0.00 | 0.00 | 0.00 | 62 | 1017.8 |
| 20260905073019 | 23 | 45 | 4.8 | 9.7 | 0.00 | 0.00 | 0.00 | 69 | 1017.6 |
| 20260905072015 | 22 | 135 | 0.0 | 3.2 | 0.00 | 0.00 | 0.00 | 71 | 1016.9 |
| 20260905071026 | 22 | 270 | 0.0 | 3.2 | 0.00 | 0.00 | 0.00 | 71 | 1016.6 |
| 20260905070022 | 22 | 0.0 | 0.0 | 0.00 | 0.00 | 0.00 | 72 | 1016.4 | |
| 20260905065018 | 21 | 90 | 0.0 | 1.6 | 0.00 | 0.00 | 0.00 | 75 | 1016.4 |
| 20260905064029 | 21 | 54 | 1.6 | 4.8 | 0.00 | 0.00 | 0.00 | 74 | 1016.3 |
| 20260905063025 | 22 | 71 | 0.0 | 4.8 | 0.00 | 0.00 | 0.00 | 73 | 1016.0 |
| 20260905062021 | 21 | 45 | 1.6 | 4.8 | 0.00 | 0.00 | 0.00 | 82 | 1016.0 |
| 20260905061020 | 20 | 92 | 1.6 | 4.8 | 0.00 | 0.00 | 0.00 | 97 | 1015.9 |
| 20260905060015 | 18 | 0.0 | 0.0 | 0.00 | 0.00 | 0.00 | 99 | 1015.7 | |
| 20260905055027 | 17 | 0.0 | 0.0 | 0.00 | 0.00 | 0.00 | 99 | 1015.5 | |
| 20260905054022 | 17 | 135 | 0.0 | 0.0 | 0.00 | 0.00 | 0.00 | 99 | 1015.5 |
| 20260905053018 | 16 | 0.0 | 0.0 | 0.00 | 0.00 | 0.00 | 99 | 1015.4 | |
| 20260905052029 | 15 | 0.0 | 0.0 | 0.00 | 0.00 | 0.00 | 99 | 1015.3 | |
| 20260905051023 | 15 | 0.0 | 0.0 | 0.00 | 0.00 | 0.00 | 99 | 1015.2 | |
| 20260905050020 | 16 | 0.0 | 0.0 | 0.00 | 0.00 | 0.00 | 99 | 1015.2 | |
| 20260905045015 | 15 | 0.0 | 0.0 | 0.00 | 0.00 | 0.00 | 99 | 1015.0 | |
| 20260905044026 | 15 | 0.0 | 0.0 | 0.00 | 0.00 | 0.00 | 99 | 1014.8 | |
| 20260905043022 | 15 | 0.0 | 0.0 | 0.00 | 0.00 | 0.00 | 99 | 1014.6 | |
| 20260905042018 | 15 | 0.0 | 0.0 | 0.00 | 0.00 | 0.00 | 99 | 1014.4 | |
| 20260905041029 | 15 | 0.0 | 0.0 | 0.00 | 0.00 | 0.00 | 99 | 1014.4 | |
| 20260905040024 | 15 | 0.0 | 0.0 | 0.00 | 0.00 | 0.00 | 99 | 1014.3 | |
| 20260905035020 | 15 | 0.0 | 0.0 | 0.00 | 0.00 | 0.00 | 99 | 1014.3 | |
| 20260905034016 | 15 | 0.0 | 0.0 | 0.00 | 0.00 | 0.00 | 99 | 1014.3 | |
| 20260905033027 | 15 | 0.0 | 0.0 | 0.00 | 0.00 | 0.00 | 99 | 1014.1 | |
| 20260905032022 | 15 | 0.0 | 0.0 | 0.00 | 0.00 | 0.00 | 99 | 1013.9 | |
| 20260905031018 | 15 | 0.0 | 0.0 | 0.00 | 0.00 | 0.00 | 99 | 1013.9 | |
| 20260905030029 | 15 | 0.0 | 0.0 | 0.00 | 0.00 | 0.00 | 98 | 1013.9 | |
| 20260905025025 | 15 | 0.0 | 0.0 | 0.00 | 0.00 | 0.00 | 98 | 1014.0 | |
| 20260905024021 | 15 | 0.0 | 0.0 | 0.00 | 0.00 | 0.00 | 98 | 1013.9 |